createdAt,value
2023-03-01T00:01:18.185Z,95758.38
2023-03-01T00:03:44.789Z,95763.00
2023-03-01T00:06:12.034Z,95753.97
2023-03-01T00:08:39.006Z,95744.97
2023-03-01T00:11:07.900Z,95747.03
2023-03-01T00:13:35.740Z,95752.59
2023-03-01T00:16:11.175Z,95747.25
2023-03-01T00:18:37.697Z,95747.72
2023-03-01T00:21:04.458Z,95749.97
2023-03-01T00:23:31.053Z,95752.97
2023-03-01T00:25:57.575Z,95745.72
2023-03-01T00:28:24.274Z,95747.47
2023-03-01T00:30:50.896Z,95743.81
2023-03-01T00:33:18.414Z,95744.78
2023-03-01T00:35:45.354Z,95744.53
2023-03-01T00:38:12.324Z,95746.06
2023-03-01T00:40:38.893Z,95737.81
2023-03-01T00:43:05.536Z,95738.28
2023-03-01T00:45:33.757Z,95733.06
2023-03-01T00:48:00.452Z,95736.03
2023-03-01T00:50:27.059Z,95736.72
2023-03-01T00:52:55.294Z,95730.00
2023-03-01T00:55:22.032Z,95735.66
2023-03-01T00:57:48.697Z,95736.88
2023-03-01T01:00:16.175Z,95730.34
2023-03-01T01:02:43.206Z,95730.22
2023-03-01T01:05:09.808Z,95717.44
2023-03-01T01:07:36.507Z,95714.25
2023-03-01T01:10:03.682Z,95714.00
2023-03-01T01:12:30.381Z,95704.28
2023-03-01T01:14:56.945Z,95712.13
2023-03-01T01:17:23.467Z,95703.22
2023-03-01T01:19:50.234Z,95698.06
2023-03-01T01:22:17.472Z,95687.28
2023-03-01T01:24:44.044Z,95694.16
2023-03-01T01:27:10.642Z,95702.28
2023-03-01T01:29:37.591Z,95692.34
2023-03-01T01:32:04.286Z,95693.56
2023-03-01T01:34:30.851Z,95691.56
2023-03-01T01:36:58.105Z,95687.25
2023-03-01T01:39:24.677Z,95674.47
2023-03-01T01:41:51.259Z,95677.28
2023-03-01T01:44:26.513Z,95676.00
2023-03-01T01:47:08.103Z,95669.81
2023-03-01T01:49:40.082Z,95669.50
2023-03-01T01:52:15.929Z,95669.50
2023-03-01T01:54:51.527Z,95663.63
2023-03-01T01:57:22.917Z,95658.06
2023-03-01T01:59:53.884Z,95658.41
2023-03-01T02:02:21.040Z,95659.94
2023-03-01T02:04:49.325Z,95659.13
2023-03-01T02:07:26.896Z,95657.09
2023-03-01T02:09:53.832Z,95656.66
2023-03-01T02:12:24.313Z,95651.69
2023-03-01T02:14:51.259Z,95655.94
2023-03-01T02:17:19.187Z,95652.88
2023-03-01T02:19:58.995Z,95647.16
2023-03-01T02:22:31.000Z,95650.84
2023-03-01T02:25:09.216Z,95644.63
2023-03-01T02:27:55.180Z,95635.38
2023-03-01T02:30:23.164Z,95636.78
2023-03-01T02:32:51.895Z,95638.56
2023-03-01T02:35:19.629Z,95644.00
2023-03-01T02:37:47.284Z,95646.22
2023-03-01T02:40:18.269Z,95646.78
2023-03-01T02:42:54.540Z,95640.50
2023-03-01T02:45:22.096Z,95634.47
2023-03-01T02:47:48.622Z,95643.16
2023-03-01T02:50:30.412Z,95632.16
2023-03-01T02:53:05.635Z,95635.53
2023-03-01T02:55:32.164Z,95636.69
2023-03-01T02:58:03.364Z,95641.50
2023-03-01T03:00:40.409Z,95635.22
2023-03-01T03:03:08.153Z,95630.63
2023-03-01T03:05:34.743Z,95627.94
2023-03-01T03:08:04.149Z,95624.13
2023-03-01T03:10:37.596Z,95628.28
2023-03-01T03:13:08.035Z,95634.75
2023-03-01T03:15:39.289Z,95633.47
2023-03-01T03:18:09.174Z,95651.44
2023-03-01T03:20:35.937Z,95634.44
2023-03-01T03:23:02.611Z,95645.84
2023-03-01T03:25:30.532Z,95641.00
2023-03-01T03:27:58.761Z,95630.41
2023-03-01T03:30:30.459Z,95634.63
2023-03-01T03:32:58.649Z,95628.50
2023-03-01T03:35:31.133Z,95633.34
2023-03-01T03:38:10.274Z,95633.38
2023-03-01T03:40:39.203Z,95617.94
2023-03-01T03:43:09.480Z,95617.41
2023-03-01T03:45:36.836Z,95625.50
2023-03-01T03:48:06.121Z,95618.16
2023-03-01T03:50:33.124Z,95619.16
2023-03-01T03:53:02.432Z,95610.78
2023-03-01T03:55:31.894Z,95612.78
2023-03-01T03:58:02.876Z,95608.44
2023-03-01T04:00:29.504Z,95610.78
2023-03-01T04:02:57.367Z,95604.13
2023-03-01T04:05:24.814Z,95601.94
2023-03-01T04:08:01.865Z,95598.16
2023-03-01T04:10:52.111Z,95593.06
2023-03-01T04:13:21.351Z,95595.41
2023-03-01T04:15:50.574Z,95589.59
2023-03-01T04:18:18.964Z,95593.59
2023-03-01T04:20:46.357Z,95603.06
2023-03-01T04:23:20.930Z,95597.28
2023-03-01T04:25:54.954Z,95594.41
2023-03-01T04:28:29.831Z,95594.66
2023-03-01T04:30:58.665Z,95596.31
2023-03-01T04:33:26.818Z,95593.25
2023-03-01T04:35:53.762Z,95593.28
2023-03-01T04:38:22.067Z,95595.66
2023-03-01T04:40:48.717Z,95591.53
2023-03-01T04:43:15.704Z,95601.91
2023-03-01T04:45:42.517Z,95587.63
2023-03-01T04:48:09.179Z,95595.16
2023-03-01T04:50:35.946Z,95593.19
2023-03-01T04:53:02.894Z,95590.81
2023-03-01T04:55:30.076Z,95584.44
2023-03-01T04:57:56.936Z,95591.16
2023-03-01T05:00:24.447Z,95589.03
2023-03-01T05:03:00.201Z,95584.56
2023-03-01T05:05:34.545Z,95586.69
2023-03-01T05:08:03.080Z,95579.09
2023-03-01T05:10:32.368Z,95587.72
2023-03-01T05:13:00.201Z,95584.69
2023-03-01T05:15:28.717Z,95587.81
2023-03-01T05:17:59.509Z,95580.31
2023-03-01T05:20:30.786Z,95579.91
2023-03-01T05:22:59.835Z,95587.13
2023-03-01T05:25:27.075Z,95577.41
2023-03-01T05:27:53.706Z,95575.56
2023-03-01T05:30:20.424Z,95574.16
2023-03-01T05:32:49.455Z,95575.47
2023-03-01T05:35:18.643Z,95574.38
2023-03-01T05:37:48.267Z,95582.59
2023-03-01T05:40:24.989Z,95575.09
2023-03-01T05:42:56.005Z,95579.00
2023-03-01T05:45:24.723Z,95569.72
2023-03-01T05:47:52.719Z,95561.38
2023-03-01T05:50:22.937Z,95576.88
2023-03-01T05:52:52.218Z,95574.56
2023-03-01T05:55:21.166Z,95567.25
2023-03-01T05:57:48.559Z,95564.34
2023-03-01T06:00:17.514Z,95565.28
2023-03-01T06:02:44.078Z,95578.00
2023-03-01T06:05:12.468Z,95575.41
2023-03-01T06:07:39.510Z,95574.06
2023-03-01T06:10:07.483Z,95584.88
2023-03-01T06:12:35.385Z,95587.44
2023-03-01T06:15:02.886Z,95591.03
2023-03-01T06:17:38.213Z,95589.00
2023-03-01T06:20:07.812Z,95582.81
2023-03-01T06:22:34.375Z,95592.75
2023-03-01T06:25:00.980Z,95586.13
2023-03-01T06:27:27.529Z,95577.06
2023-03-01T06:29:54.201Z,95587.63
2023-03-01T06:32:21.033Z,95588.97
2023-03-01T06:34:47.651Z,95586.41
2023-03-01T06:37:14.206Z,95588.53
2023-03-01T06:39:41.302Z,95587.34
2023-03-01T06:42:10.926Z,95593.38
2023-03-01T06:44:38.084Z,95591.59
2023-03-01T06:47:05.222Z,95594.84
2023-03-01T06:49:31.788Z,95597.13
2023-03-01T06:51:58.376Z,95594.31
2023-03-01T06:54:25.123Z,95583.19
2023-03-01T06:56:51.653Z,95585.72
2023-03-01T06:59:18.688Z,95584.53
2023-03-01T07:01:45.480Z,95585.13
2023-03-01T07:04:13.506Z,95593.31
2023-03-01T07:06:40.358Z,95587.72
2023-03-01T07:09:06.954Z,95594.03
2023-03-01T07:11:33.866Z,95589.84
2023-03-01T07:14:01.062Z,95588.91
2023-03-01T07:16:27.847Z,95584.06
2023-03-01T07:18:54.984Z,95586.66
2023-03-01T07:21:21.503Z,95579.94
2023-03-01T07:23:51.045Z,95573.06
2023-03-01T07:26:17.735Z,95576.28
2023-03-01T07:28:44.265Z,95587.81
2023-03-01T07:31:10.803Z,95580.84
2023-03-01T07:33:37.316Z,95585.88
2023-03-01T07:36:04.835Z,95582.13
2023-03-01T07:38:31.706Z,95583.66
2023-03-01T07:41:02.829Z,95575.44
2023-03-01T07:43:30.569Z,95565.75
2023-03-01T07:46:03.707Z,95573.91
2023-03-01T07:48:31.447Z,95571.72
2023-03-01T07:51:02.753Z,95570.09
2023-03-01T07:53:29.350Z,95560.44
2023-03-01T07:56:07.848Z,95560.19
2023-03-01T07:58:39.375Z,95557.59
2023-03-01T08:01:09.758Z,95554.06
2023-03-01T08:03:37.771Z,95556.53
2023-03-01T08:06:07.096Z,95553.94
2023-03-01T08:08:34.711Z,95552.88
2023-03-01T08:11:02.950Z,95554.75
2023-03-01T08:13:30.289Z,95558.06
2023-03-01T08:16:03.235Z,95550.97
2023-03-01T08:18:29.976Z,95557.34
2023-03-01T08:20:56.564Z,95545.91
2023-03-01T08:23:23.178Z,95544.31
2023-03-01T08:25:49.983Z,95545.44
2023-03-01T08:28:16.534Z,95554.88
2023-03-01T08:30:43.034Z,95540.81
2023-03-01T08:33:09.603Z,95548.69
2023-03-01T08:35:36.155Z,95542.75
2023-03-01T08:38:02.702Z,95547.16
2023-03-01T08:40:29.213Z,95544.78
2023-03-01T08:42:55.762Z,95540.88
2023-03-01T08:45:22.327Z,95527.09
2023-03-01T08:47:48.921Z,95532.81
2023-03-01T08:50:15.748Z,95522.47
2023-03-01T08:52:42.303Z,95525.56
2023-03-01T08:55:09.239Z,95520.16
2023-03-01T08:57:35.777Z,95519.78
2023-03-01T09:00:02.491Z,95519.75
2023-03-01T09:02:29.212Z,95517.47
2023-03-01T09:04:55.823Z,95524.19
2023-03-01T09:07:22.391Z,95510.44
2023-03-01T09:09:48.925Z,95517.50
2023-03-01T09:12:15.460Z,95514.47
2023-03-01T09:14:42.962Z,95512.50
2023-03-01T09:17:09.645Z,95511.22
2023-03-01T09:19:36.242Z,95507.03
2023-03-01T09:22:04.678Z,95517.53
2023-03-01T09:24:31.530Z,95514.63
2023-03-01T09:26:58.256Z,95511.06
2023-03-01T09:29:25.118Z,95513.41
2023-03-01T09:31:51.713Z,95510.53
2023-03-01T09:34:24.246Z,95498.25
2023-03-01T09:36:52.072Z,95509.16
2023-03-01T09:39:19.406Z,95501.94
2023-03-01T09:42:05.393Z,95507.47
2023-03-01T09:44:39.205Z,95499.63
2023-03-01T09:47:05.988Z,95508.03
2023-03-01T09:49:36.119Z,95502.69
2023-03-01T09:52:20.107Z,95503.84
2023-03-01T09:54:47.960Z,95507.31
2023-03-01T09:57:21.450Z,95506.75
2023-03-01T09:59:56.888Z,95506.97
2023-03-01T10:02:36.393Z,95499.31
2023-03-01T10:05:32.566Z,95492.69
2023-03-01T10:08:22.103Z,95496.09
2023-03-01T10:10:50.090Z,95493.13
2023-03-01T10:13:22.596Z,95487.72
2023-03-01T10:15:56.917Z,95496.13
2023-03-01T10:18:28.670Z,95499.75
2023-03-01T10:21:00.799Z,95498.47
2023-03-01T10:23:31.228Z,95496.63
2023-03-01T10:26:30.487Z,95486.38
2023-03-01T10:29:05.976Z,95491.31
2023-03-01T10:31:51.419Z,95493.78
2023-03-01T10:34:32.976Z,95486.50
2023-03-01T10:37:22.571Z,95487.19
2023-03-01T10:40:15.728Z,95489.41
2023-03-01T10:42:50.852Z,95482.34
2023-03-01T10:45:20.381Z,95481.28
2023-03-01T10:47:46.974Z,95483.75
2023-03-01T10:50:23.225Z,95481.41
2023-03-01T10:53:01.854Z,95475.66
2023-03-01T10:55:36.763Z,95464.84
2023-03-01T10:58:15.428Z,95464.81
2023-03-01T11:00:50.104Z,95461.34
2023-03-01T11:03:27.569Z,95454.75
2023-03-01T11:06:03.609Z,95447.44
2023-03-01T11:08:37.062Z,95439.59
2023-03-01T11:11:15.747Z,95440.28
2023-03-01T11:14:26.449Z,95424.03
2023-03-01T11:17:04.661Z,95419.63
2023-03-01T11:19:31.973Z,95410.84
2023-03-01T11:22:04.373Z,95402.69
2023-03-01T11:24:49.342Z,95404.00
2023-03-01T11:27:39.846Z,95395.13
2023-03-01T11:30:14.306Z,95388.63
2023-03-01T11:32:46.328Z,95398.28
2023-03-01T11:35:22.130Z,95385.75
2023-03-01T11:38:00.933Z,95372.31
2023-03-01T11:40:34.452Z,95370.28
2023-03-01T11:43:12.919Z,95364.97
2023-03-01T11:46:08.069Z,95361.94
2023-03-01T11:49:05.965Z,95351.59
2023-03-01T11:51:53.161Z,95345.47
2023-03-01T11:54:48.890Z,95349.03
2023-03-01T11:57:42.909Z,95343.53
2023-03-01T12:00:31.965Z,95338.63
2023-03-01T12:03:26.358Z,95342.25
2023-03-01T12:06:30.686Z,95342.31
2023-03-01T12:09:08.275Z,95336.75
2023-03-01T12:11:34.802Z,95324.66
2023-03-01T12:14:19.578Z,95328.72
2023-03-01T12:17:15.762Z,95330.00
2023-03-01T12:19:42.260Z,95323.84
2023-03-01T12:22:14.784Z,95319.91
2023-03-01T12:25:13.395Z,95327.88
2023-03-01T12:28:37.415Z,95318.97
2023-03-01T12:31:36.241Z,95317.91
2023-03-01T12:34:27.012Z,95316.09
2023-03-01T12:37:00.903Z,95311.47
2023-03-01T12:39:37.726Z,95315.06
2023-03-01T12:42:25.797Z,95305.88
2023-03-01T12:45:33.548Z,95296.81
2023-03-01T12:48:15.787Z,95298.91
2023-03-01T12:50:47.120Z,95306.31
2023-03-01T12:53:36.631Z,95300.00
2023-03-01T12:56:08.118Z,95302.06
2023-03-01T12:58:48.656Z,95301.22
2023-03-01T13:01:39.886Z,95305.03
2023-03-01T13:04:23.881Z,95305.16
2023-03-01T13:06:59.150Z,95302.78
2023-03-01T13:09:56.698Z,95296.13
2023-03-01T13:12:54.389Z,95295.94
2023-03-01T13:15:23.849Z,95297.81
2023-03-01T13:17:59.758Z,95299.47
2023-03-01T13:20:35.585Z,95298.72
2023-03-01T13:23:10.826Z,95298.09
2023-03-01T13:26:03.190Z,95301.31
2023-03-01T13:28:32.744Z,95297.47
2023-03-01T13:30:59.994Z,95298.88
2023-03-01T13:33:29.339Z,95290.22
2023-03-01T13:35:57.900Z,95287.22
2023-03-01T13:38:58.251Z,95289.13
2023-03-01T13:41:40.272Z,95291.63
2023-03-01T13:44:25.594Z,95286.34
2023-03-01T13:46:54.885Z,95279.91
2023-03-01T13:49:24.667Z,95289.28
2023-03-01T13:51:52.703Z,95289.16
2023-03-01T13:54:29.033Z,95275.03
2023-03-01T13:56:56.831Z,95269.25
2023-03-01T13:59:23.885Z,95266.84
2023-03-01T14:01:59.596Z,95267.97
2023-03-01T14:04:38.535Z,95269.47
2023-03-01T14:07:11.157Z,95279.03
2023-03-01T14:09:43.867Z,95278.69
2023-03-01T14:12:38.522Z,95275.19
2023-03-01T14:15:05.059Z,95265.28
2023-03-01T14:17:48.716Z,95263.63
2023-03-01T14:20:28.479Z,95262.88
2023-03-01T14:22:58.085Z,95253.72
2023-03-01T14:25:31.878Z,95250.72
2023-03-01T14:28:04.651Z,95244.63
2023-03-01T14:30:39.809Z,95219.03
2023-03-01T14:33:07.656Z,95228.91
2023-03-01T14:35:36.335Z,95228.31
2023-03-01T14:38:04.235Z,95222.03
2023-03-01T14:40:37.111Z,95221.09
2023-03-01T14:43:12.182Z,95229.25
2023-03-01T14:45:39.048Z,95232.25
2023-03-01T14:48:08.177Z,95227.50
2023-03-01T14:50:40.944Z,95220.09
2023-03-01T14:53:08.986Z,95225.13
2023-03-01T14:55:42.116Z,95228.69
2023-03-01T14:58:15.608Z,95234.88
2023-03-01T15:00:50.746Z,95227.72
2023-03-01T15:03:46.852Z,95220.94
2023-03-01T15:06:18.811Z,95231.88
2023-03-01T15:08:54.910Z,95226.34
2023-03-01T15:11:25.517Z,95223.41
2023-03-01T15:13:53.580Z,95228.25
2023-03-01T15:16:30.337Z,95220.03
2023-03-01T15:19:00.441Z,95220.88
2023-03-01T15:21:42.503Z,95225.56
2023-03-01T15:24:21.092Z,95220.72
2023-03-01T15:26:51.903Z,95223.59
2023-03-01T15:29:20.424Z,95232.66
2023-03-01T15:32:27.387Z,95227.44
2023-03-01T15:34:54.120Z,95227.84
2023-03-01T15:37:41.781Z,95224.91
2023-03-01T15:40:32.286Z,95216.31
2023-03-01T15:43:05.255Z,95217.88
2023-03-01T15:45:34.952Z,95207.31
2023-03-01T15:48:15.368Z,95209.66
2023-03-01T15:50:44.488Z,95220.88
2023-03-01T15:53:16.050Z,95227.00
2023-03-01T15:55:42.597Z,95219.75
2023-03-01T15:58:24.040Z,95209.94
2023-03-01T16:01:01.669Z,95213.72
2023-03-01T16:03:29.449Z,95212.78
2023-03-01T16:05:56.387Z,95209.69
2023-03-01T16:08:22.946Z,95210.69
2023-03-01T16:10:52.048Z,95216.78
2023-03-01T16:13:18.970Z,95209.75
2023-03-01T16:15:45.861Z,95217.13
2023-03-01T16:18:12.819Z,95218.44
2023-03-01T16:20:40.499Z,95221.69
2023-03-01T16:23:09.660Z,95221.72
2023-03-01T16:25:37.166Z,95222.03
2023-03-01T16:28:09.417Z,95219.75
2023-03-01T16:30:37.500Z,95220.06
2023-03-01T16:33:19.204Z,95217.75
2023-03-01T16:35:51.825Z,95220.56
2023-03-01T16:38:18.606Z,95214.97
2023-03-01T16:40:49.542Z,95219.88
2023-03-01T16:43:16.729Z,95219.31
2023-03-01T16:45:47.456Z,95220.25
2023-03-01T16:48:14.598Z,95216.84
2023-03-01T16:50:41.692Z,95218.25
2023-03-01T16:53:08.443Z,95216.44
2023-03-01T16:55:35.056Z,95228.38
2023-03-01T16:58:02.288Z,95227.69
2023-03-01T17:00:29.548Z,95227.97
2023-03-01T17:02:56.274Z,95233.88
2023-03-01T17:05:24.970Z,95241.00
2023-03-01T17:08:00.135Z,95241.09
2023-03-01T17:10:30.772Z,95251.50
2023-03-01T17:12:57.501Z,95265.94
2023-03-01T17:15:24.759Z,95258.31
2023-03-01T17:17:52.030Z,95254.94
2023-03-01T17:20:19.173Z,95255.56
2023-03-01T17:22:45.832Z,95258.47
2023-03-01T17:25:12.919Z,95258.72
2023-03-01T17:27:40.513Z,95267.13
2023-03-01T17:30:08.939Z,95268.00
2023-03-01T17:32:36.680Z,95258.00
2023-03-01T17:35:03.495Z,95259.28
2023-03-01T17:37:30.323Z,95254.78
2023-03-01T17:39:57.021Z,95268.13
2023-03-01T17:42:23.658Z,95267.22
2023-03-01T17:44:51.106Z,95275.25
2023-03-01T17:47:17.747Z,95264.44
2023-03-01T17:49:44.335Z,95274.50
2023-03-01T17:52:11.010Z,95273.38
2023-03-01T17:54:37.596Z,95271.59
2023-03-01T17:57:04.374Z,95273.81
2023-03-01T17:59:33.387Z,95276.72
2023-03-01T18:04:06.986Z,95288.31
2023-03-01T18:06:34.114Z,95282.63
2023-03-01T18:09:00.808Z,95296.94
2023-03-01T18:11:28.169Z,95294.47
2023-03-01T18:13:55.816Z,95297.22
2023-03-01T18:16:23.008Z,95299.66
2023-03-01T18:18:54.243Z,95292.81
2023-03-01T18:21:21.527Z,95289.50
2023-03-01T18:23:48.119Z,95293.19
2023-03-01T18:26:22.021Z,95298.84
2023-03-01T18:28:50.649Z,95291.84
2023-03-01T18:31:18.820Z,95284.41
2023-03-01T18:33:46.469Z,95292.19
2023-03-01T18:36:20.535Z,95281.13
2023-03-01T18:38:48.953Z,95279.88
2023-03-01T18:41:16.405Z,95280.97
2023-03-01T18:43:43.034Z,95279.84
2023-03-01T18:46:10.196Z,95283.81
2023-03-01T18:48:37.709Z,95282.88
2023-03-01T18:51:15.847Z,95282.63
2023-03-01T18:53:42.449Z,95281.47
2023-03-01T18:56:10.456Z,95277.47
2023-03-01T18:58:37.356Z,95281.56
2023-03-01T19:01:07.831Z,95274.78
2023-03-01T19:03:35.685Z,95284.91
2023-03-01T19:06:02.322Z,95287.63
2023-03-01T19:08:30.375Z,95284.00
2023-03-01T19:10:58.934Z,95286.53
2023-03-01T19:13:25.983Z,95275.16
2023-03-01T19:15:53.185Z,95281.53
2023-03-01T19:18:19.856Z,95271.13
2023-03-01T19:20:46.775Z,95275.66
2023-03-01T19:23:15.481Z,95280.16
2023-03-01T19:25:41.999Z,95276.16
2023-03-01T19:28:08.699Z,95277.94
2023-03-01T19:30:35.290Z,95280.25
2023-03-01T19:33:01.844Z,95276.41
2023-03-01T19:35:28.564Z,95279.78
2023-03-01T19:37:55.086Z,95277.63
2023-03-01T19:40:21.706Z,95266.53
2023-03-01T19:42:48.288Z,95275.44
2023-03-01T19:45:16.191Z,95274.72
2023-03-01T19:47:47.633Z,95272.63
2023-03-01T19:50:14.452Z,95272.25
2023-03-01T19:52:41.249Z,95268.84
2023-03-01T19:55:10.014Z,95271.97
2023-03-01T19:57:36.951Z,95275.09
2023-03-01T20:00:04.065Z,95270.09
2023-03-01T20:02:39.150Z,95267.66
2023-03-01T20:05:05.933Z,95268.94
2023-03-01T20:07:32.538Z,95271.56
2023-03-01T20:09:59.103Z,95262.69
2023-03-01T20:12:25.629Z,95263.19
2023-03-01T20:14:55.250Z,95264.69
2023-03-01T20:17:23.031Z,95260.50
2023-03-01T20:19:49.636Z,95262.94
2023-03-01T20:22:17.629Z,95260.03
2023-03-01T20:24:44.429Z,95255.66
2023-03-01T20:27:11.031Z,95248.69
2023-03-01T20:29:37.708Z,95243.72
2023-03-01T20:32:04.599Z,95249.81
2023-03-01T20:34:31.251Z,95256.34
2023-03-01T20:36:57.882Z,95251.72
2023-03-01T20:39:24.516Z,95244.63
2023-03-01T20:41:51.084Z,95244.06
2023-03-01T20:44:17.639Z,95243.47
2023-03-01T20:46:44.371Z,95240.81
2023-03-01T20:49:11.017Z,95244.22
2023-03-01T20:51:37.683Z,95242.44
2023-03-01T20:54:05.198Z,95247.53
2023-03-01T20:56:32.252Z,95245.56
2023-03-01T20:59:04.380Z,95246.38
2023-03-01T21:01:31.346Z,95240.28
2023-03-01T21:03:57.928Z,95245.81
2023-03-01T21:06:24.550Z,95246.06
2023-03-01T21:08:52.036Z,95243.47
2023-03-01T21:11:19.367Z,95247.00
2023-03-01T21:13:46.545Z,95244.28
2023-03-01T21:16:14.058Z,95239.16
2023-03-01T21:18:41.111Z,95240.63
2023-03-01T21:21:13.810Z,95231.50
2023-03-01T21:23:41.800Z,95227.78
2023-03-01T21:26:20.588Z,95234.44
2023-03-01T21:28:50.084Z,95232.41
2023-03-01T21:31:20.534Z,95223.00
2023-03-01T21:33:49.969Z,95226.44
2023-03-01T21:36:17.777Z,95223.88
2023-03-01T21:38:46.673Z,95222.41
2023-03-01T21:41:15.707Z,95223.06
2023-03-01T21:43:44.241Z,95215.31
2023-03-01T21:46:14.148Z,95214.38
2023-03-01T21:48:44.215Z,95208.75
2023-03-01T21:51:14.951Z,95203.41
2023-03-01T21:53:42.598Z,95204.09
2023-03-01T21:56:09.708Z,95205.78
2023-03-01T21:58:36.572Z,95206.34
2023-03-01T22:01:12.007Z,95203.66
2023-03-01T22:03:45.373Z,95206.09
2023-03-01T22:06:22.886Z,95200.94
2023-03-01T22:08:58.504Z,95207.69
2023-03-01T22:11:27.120Z,95215.69
2023-03-01T22:13:56.019Z,95204.88
2023-03-01T22:16:25.668Z,95192.84
2023-03-01T22:18:52.630Z,95196.38
2023-03-01T22:21:20.409Z,95194.97
2023-03-01T22:23:47.076Z,95189.41
2023-03-01T22:26:32.138Z,95199.41
2023-03-01T22:29:00.860Z,95200.13
2023-03-01T22:31:28.497Z,95194.91
2023-03-01T22:33:56.171Z,95191.59
2023-03-01T22:36:23.169Z,95192.25
2023-03-01T22:38:50.378Z,95185.16
2023-03-01T22:41:16.890Z,95176.53
2023-03-01T22:43:43.413Z,95182.78
2023-03-01T22:46:16.181Z,95178.00
2023-03-01T22:48:43.631Z,95184.19
2023-03-01T22:51:21.706Z,95187.22
2023-03-01T22:53:48.340Z,95181.69
2023-03-01T22:56:18.173Z,95184.56
2023-03-01T22:58:45.282Z,95186.63
2023-03-01T23:01:21.069Z,95188.41
2023-03-01T23:03:48.077Z,95177.00
2023-03-01T23:06:16.435Z,95169.34
2023-03-01T23:08:43.864Z,95176.47
2023-03-01T23:11:14.181Z,95182.94
2023-03-01T23:13:41.577Z,95179.03
2023-03-01T23:16:09.243Z,95176.72
2023-03-01T23:18:36.062Z,95175.47
2023-03-01T23:21:08.506Z,95169.84
2023-03-01T23:23:35.104Z,95166.31
2023-03-01T23:26:01.727Z,95166.50
2023-03-01T23:28:29.610Z,95169.94
2023-03-01T23:30:59.366Z,95169.13
2023-03-01T23:33:27.744Z,95175.84
2023-03-01T23:35:54.360Z,95171.44
2023-03-01T23:38:21.272Z,95171.16
2023-03-01T23:40:48.180Z,95171.03
2023-03-01T23:43:15.561Z,95174.63
2023-03-01T23:45:43.308Z,95172.03
2023-03-01T23:48:12.121Z,95172.72
2023-03-01T23:50:41.840Z,95172.03
2023-03-01T23:53:19.422Z,95168.84
2023-03-01T23:55:49.878Z,95161.59
2023-03-01T23:58:16.724Z,95160.78
